sensor_id;sensor_type;location;lat;lon;timestamp;temperature;humidity
10149;DHT22;5115;50.920;6.376;2023-12-20T00:00:05;9.20;99.90
10149;DHT22;5115;50.920;6.376;2023-12-20T00:02:31;9.20;99.90
10149;DHT22;5115;50.920;6.376;2023-12-20T00:04:57;9.20;99.90
10149;DHT22;5115;50.920;6.376;2023-12-20T00:07:22;9.20;99.90
10149;DHT22;5115;50.920;6.376;2023-12-20T00:09:48;9.20;99.90
10149;DHT22;5115;50.920;6.376;2023-12-20T00:12:13;9.10;99.90
10149;DHT22;5115;50.920;6.376;2023-12-20T00:14:39;9.10;99.90
10149;DHT22;5115;50.920;6.376;2023-12-20T00:17:04;9.20;99.90
10149;DHT22;5115;50.920;6.376;2023-12-20T00:19:30;9.20;99.90
10149;DHT22;5115;50.920;6.376;2023-12-20T00:21:56;9.10;99.90
10149;DHT22;5115;50.920;6.376;2023-12-20T00:24:21;9.20;99.90
10149;DHT22;5115;50.920;6.376;2023-12-20T00:26:47;9.10;99.90
10149;DHT22;5115;50.920;6.376;2023-12-20T00:29:12;9.20;99.90
10149;DHT22;5115;50.920;6.376;2023-12-20T00:31:38;9.20;99.90
10149;DHT22;5115;50.920;6.376;2023-12-20T00:34:03;9.10;99.90
10149;DHT22;5115;50.920;6.376;2023-12-20T00:36:29;9.10;99.90
10149;DHT22;5115;50.920;6.376;2023-12-20T00:38:54;9.10;99.90
10149;DHT22;5115;50.920;6.376;2023-12-20T00:41:20;9.00;99.90
10149;DHT22;5115;50.920;6.376;2023-12-20T00:43:45;9.00;99.90
10149;DHT22;5115;50.920;6.376;2023-12-20T00:46:11;9.00;99.90
10149;DHT22;5115;50.920;6.376;2023-12-20T00:48:36;9.00;99.90
10149;DHT22;5115;50.920;6.376;2023-12-20T00:51:02;9.10;99.90
10149;DHT22;5115;50.920;6.376;2023-12-20T00:53:28;9.00;99.90
10149;DHT22;5115;50.920;6.376;2023-12-20T00:55:53;9.00;99.90
10149;DHT22;5115;50.920;6.376;2023-12-20T00:58:19;9.10;99.90
10149;DHT22;5115;50.920;6.376;2023-12-20T01:00:44;9.10;99.90
10149;DHT22;5115;50.920;6.376;2023-12-20T01:03:10;9.00;99.90
10149;DHT22;5115;50.920;6.376;2023-12-20T01:05:36;9.00;99.90
10149;DHT22;5115;50.920;6.376;2023-12-20T01:08:01;8.90;99.90
10149;DHT22;5115;50.920;6.376;2023-12-20T01:10:28;8.80;99.90
10149;DHT22;5115;50.920;6.376;2023-12-20T01:12:54;8.80;99.90
10149;DHT22;5115;50.920;6.376;2023-12-20T01:15:20;8.60;99.90
10149;DHT22;5115;50.920;6.376;2023-12-20T01:17:46;8.50;99.90
10149;DHT22;5115;50.920;6.376;2023-12-20T01:20:11;8.50;99.90
10149;DHT22;5115;50.920;6.376;2023-12-20T01:22:37;8.80;99.90
10149;DHT22;5115;50.920;6.376;2023-12-20T01:25:02;8.50;99.90
10149;DHT22;5115;50.920;6.376;2023-12-20T01:27:28;8.40;99.90
10149;DHT22;5115;50.920;6.376;2023-12-20T01:29:54;8.40;99.90
10149;DHT22;5115;50.920;6.376;2023-12-20T01:32:19;8.30;99.90
10149;DHT22;5115;50.920;6.376;2023-12-20T01:34:45;8.30;99.90
10149;DHT22;5115;50.920;6.376;2023-12-20T01:37:10;8.10;99.90
10149;DHT22;5115;50.920;6.376;2023-12-20T01:39:36;8.00;99.90
10149;DHT22;5115;50.920;6.376;2023-12-20T01:42:02;8.00;99.90
10149;DHT22;5115;50.920;6.376;2023-12-20T01:44:27;7.90;99.90
10149;DHT22;5115;50.920;6.376;2023-12-20T01:46:53;7.80;99.90
10149;DHT22;5115;50.920;6.376;2023-12-20T01:49:19;7.80;99.90
10149;DHT22;5115;50.920;6.376;2023-12-20T01:51:46;7.70;99.90
10149;DHT22;5115;50.920;6.376;2023-12-20T01:54:12;7.70;99.90
10149;DHT22;5115;50.920;6.376;2023-12-20T01:56:38;7.60;99.90
10149;DHT22;5115;50.920;6.376;2023-12-20T01:59:05;7.60;99.90
10149;DHT22;5115;50.920;6.376;2023-12-20T02:01:31;7.50;99.90
10149;DHT22;5115;50.920;6.376;2023-12-20T02:03:57;7.50;99.90
10149;DHT22;5115;50.920;6.376;2023-12-20T02:06:24;7.60;99.90
10149;DHT22;5115;50.920;6.376;2023-12-20T02:08:54;7.60;99.90
10149;DHT22;5115;50.920;6.376;2023-12-20T02:11:20;7.60;99.90
10149;DHT22;5115;50.920;6.376;2023-12-20T02:13:46;7.60;99.90
10149;DHT22;5115;50.920;6.376;2023-12-20T02:16:12;7.60;99.90
10149;DHT22;5115;50.920;6.376;2023-12-20T02:18:37;7.60;99.90
10149;DHT22;5115;50.920;6.376;2023-12-20T02:21:05;7.60;99.90
10149;DHT22;5115;50.920;6.376;2023-12-20T02:23:31;7.70;99.90
10149;DHT22;5115;50.920;6.376;2023-12-20T02:25:56;7.70;99.90
10149;DHT22;5115;50.920;6.376;2023-12-20T02:28:22;7.70;99.90
10149;DHT22;5115;50.920;6.376;2023-12-20T02:30:48;7.70;99.90
10149;DHT22;5115;50.920;6.376;2023-12-20T02:33:15;7.70;99.90
10149;DHT22;5115;50.920;6.376;2023-12-20T02:35:41;7.70;99.90
10149;DHT22;5115;50.920;6.376;2023-12-20T02:38:06;7.80;99.90
10149;DHT22;5115;50.920;6.376;2023-12-20T02:40:32;7.80;99.90
10149;DHT22;5115;50.920;6.376;2023-12-20T02:42:57;7.80;99.90
10149;DHT22;5115;50.920;6.376;2023-12-20T02:45:23;7.80;99.90
10149;DHT22;5115;50.920;6.376;2023-12-20T02:47:48;7.80;99.90
10149;DHT22;5115;50.920;6.376;2023-12-20T02:50:14;7.80;99.90
10149;DHT22;5115;50.920;6.376;2023-12-20T02:52:39;7.70;99.90
10149;DHT22;5115;50.920;6.376;2023-12-20T02:55:05;7.70;99.90
10149;DHT22;5115;50.920;6.376;2023-12-20T02:57:31;7.70;99.90
10149;DHT22;5115;50.920;6.376;2023-12-20T02:59:58;7.70;99.90
10149;DHT22;5115;50.920;6.376;2023-12-20T03:02:24;7.70;99.90
10149;DHT22;5115;50.920;6.376;2023-12-20T03:04:49;7.70;99.90
10149;DHT22;5115;50.920;6.376;2023-12-20T03:07:15;7.70;99.90
10149;DHT22;5115;50.920;6.376;2023-12-20T03:09:41;7.70;99.90
10149;DHT22;5115;50.920;6.376;2023-12-20T03:12:06;7.70;99.90
10149;DHT22;5115;50.920;6.376;2023-12-20T03:14:32;7.70;99.90
10149;DHT22;5115;50.920;6.376;2023-12-20T03:16:57;7.70;99.90
10149;DHT22;5115;50.920;6.376;2023-12-20T03:19:23;7.70;99.90
10149;DHT22;5115;50.920;6.376;2023-12-20T03:21:48;7.70;99.90
10149;DHT22;5115;50.920;6.376;2023-12-20T03:24:14;7.60;99.90
10149;DHT22;5115;50.920;6.376;2023-12-20T03:26:40;7.60;99.90
10149;DHT22;5115;50.920;6.376;2023-12-20T03:29:05;7.70;99.90
10149;DHT22;5115;50.920;6.376;2023-12-20T03:31:31;7.70;99.90
10149;DHT22;5115;50.920;6.376;2023-12-20T03:33:56;7.60;99.90
10149;DHT22;5115;50.920;6.376;2023-12-20T03:36:22;7.60;99.90
10149;DHT22;5115;50.920;6.376;2023-12-20T03:38:47;7.60;99.90
10149;DHT22;5115;50.920;6.376;2023-12-20T03:41:13;7.50;99.90
10149;DHT22;5115;50.920;6.376;2023-12-20T03:43:39;7.60;99.90
10149;DHT22;5115;50.920;6.376;2023-12-20T03:46:04;7.50;99.90
10149;DHT22;5115;50.920;6.376;2023-12-20T03:48:31;7.60;99.90
10149;DHT22;5115;50.920;6.376;2023-12-20T03:50:57;7.60;99.90
10149;DHT22;5115;50.920;6.376;2023-12-20T03:53:22;7.50;99.90
10149;DHT22;5115;50.920;6.376;2023-12-20T03:55:48;7.50;99.90
10149;DHT22;5115;50.920;6.376;2023-12-20T03:58:13;7.50;99.90
10149;DHT22;5115;50.920;6.376;2023-12-20T04:00:39;7.50;99.90
10149;DHT22;5115;50.920;6.376;2023-12-20T04:03:04;7.50;99.90
10149;DHT22;5115;50.920;6.376;2023-12-20T04:05:30;7.50;99.90
10149;DHT22;5115;50.920;6.376;2023-12-20T04:07:55;7.40;99.90
10149;DHT22;5115;50.920;6.376;2023-12-20T04:10:21;7.40;99.90
10149;DHT22;5115;50.920;6.376;2023-12-20T04:12:47;7.40;99.90
10149;DHT22;5115;50.920;6.376;2023-12-20T04:15:12;7.40;99.90
10149;DHT22;5115;50.920;6.376;2023-12-20T04:17:38;7.40;99.90
10149;DHT22;5115;50.920;6.376;2023-12-20T04:20:04;7.30;99.90
10149;DHT22;5115;50.920;6.376;2023-12-20T04:22:29;7.30;99.90
10149;DHT22;5115;50.920;6.376;2023-12-20T04:24:55;7.30;99.90
10149;DHT22;5115;50.920;6.376;2023-12-20T04:27:20;7.30;99.90
10149;DHT22;5115;50.920;6.376;2023-12-20T04:29:46;7.30;99.90
10149;DHT22;5115;50.920;6.376;2023-12-20T04:32:12;7.30;99.90
10149;DHT22;5115;50.920;6.376;2023-12-20T04:34:37;7.40;99.90
10149;DHT22;5115;50.920;6.376;2023-12-20T04:37:03;7.40;99.90
10149;DHT22;5115;50.920;6.376;2023-12-20T04:39:29;7.50;99.90
10149;DHT22;5115;50.920;6.376;2023-12-20T04:41:54;7.50;99.90
10149;DHT22;5115;50.920;6.376;2023-12-20T04:44:20;7.50;99.90
10149;DHT22;5115;50.920;6.376;2023-12-20T04:46:45;7.40;99.90
10149;DHT22;5115;50.920;6.376;2023-12-20T04:49:11;7.40;99.90
10149;DHT22;5115;50.920;6.376;2023-12-20T04:51:37;7.30;99.90
10149;DHT22;5115;50.920;6.376;2023-12-20T04:54:03;7.30;99.90
10149;DHT22;5115;50.920;6.376;2023-12-20T04:56:29;7.30;99.90
10149;DHT22;5115;50.920;6.376;2023-12-20T04:58:54;7.30;99.90
10149;DHT22;5115;50.920;6.376;2023-12-20T05:01:20;7.30;99.90
10149;DHT22;5115;50.920;6.376;2023-12-20T05:03:47;7.30;99.90
10149;DHT22;5115;50.920;6.376;2023-12-20T05:06:12;7.40;99.90
10149;DHT22;5115;50.920;6.376;2023-12-20T05:08:38;7.40;99.90
10149;DHT22;5115;50.920;6.376;2023-12-20T05:11:03;7.50;99.90
10149;DHT22;5115;50.920;6.376;2023-12-20T05:13:29;7.50;99.90
10149;DHT22;5115;50.920;6.376;2023-12-20T05:15:55;7.40;99.90
10149;DHT22;5115;50.920;6.376;2023-12-20T05:18:21;7.40;99.90
10149;DHT22;5115;50.920;6.376;2023-12-20T05:20:47;7.50;99.90
10149;DHT22;5115;50.920;6.376;2023-12-20T05:23:13;7.40;99.90
10149;DHT22;5115;50.920;6.376;2023-12-20T05:25:39;7.40;99.90
10149;DHT22;5115;50.920;6.376;2023-12-20T05:28:05;7.30;99.90
10149;DHT22;5115;50.920;6.376;2023-12-20T05:30:30;7.40;99.90
10149;DHT22;5115;50.920;6.376;2023-12-20T05:32:56;7.30;99.90
10149;DHT22;5115;50.920;6.376;2023-12-20T05:35:22;7.30;99.90
10149;DHT22;5115;50.920;6.376;2023-12-20T05:37:49;7.50;99.90
10149;DHT22;5115;50.920;6.376;2023-12-20T05:40:14;7.50;99.90
10149;DHT22;5115;50.920;6.376;2023-12-20T05:42:40;7.40;99.90
10149;DHT22;5115;50.920;6.376;2023-12-20T05:45:06;7.40;99.90
10149;DHT22;5115;50.920;6.376;2023-12-20T05:47:32;7.40;99.90
10149;DHT22;5115;50.920;6.376;2023-12-20T05:49:57;7.40;99.90
10149;DHT22;5115;50.920;6.376;2023-12-20T05:52:23;7.50;99.90
10149;DHT22;5115;50.920;6.376;2023-12-20T05:54:48;7.40;99.90
10149;DHT22;5115;50.920;6.376;2023-12-20T05:57:14;7.50;99.90
10149;DHT22;5115;50.920;6.376;2023-12-20T05:59:40;7.60;99.90
10149;DHT22;5115;50.920;6.376;2023-12-20T06:02:05;7.60;99.90
10149;DHT22;5115;50.920;6.376;2023-12-20T06:04:31;7.60;99.90
10149;DHT22;5115;50.920;6.376;2023-12-20T06:06:57;7.60;99.90
10149;DHT22;5115;50.920;6.376;2023-12-20T06:09:23;7.60;99.90
10149;DHT22;5115;50.920;6.376;2023-12-20T06:11:49;7.60;99.90
10149;DHT22;5115;50.920;6.376;2023-12-20T06:14:15;7.70;99.90
10149;DHT22;5115;50.920;6.376;2023-12-20T06:16:40;7.70;99.90
10149;DHT22;5115;50.920;6.376;2023-12-20T06:19:06;7.70;99.90
10149;DHT22;5115;50.920;6.376;2023-12-20T06:21:31;7.70;99.90
10149;DHT22;5115;50.920;6.376;2023-12-20T06:23:59;7.70;99.90
10149;DHT22;5115;50.920;6.376;2023-12-20T06:26:24;7.70;99.90
10149;DHT22;5115;50.920;6.376;2023-12-20T06:28:50;7.60;99.90
10149;DHT22;5115;50.920;6.376;2023-12-20T06:31:15;7.70;99.90
10149;DHT22;5115;50.920;6.376;2023-12-20T06:33:43;7.70;99.90
10149;DHT22;5115;50.920;6.376;2023-12-20T06:36:11;7.60;99.90
10149;DHT22;5115;50.920;6.376;2023-12-20T06:38:38;7.60;99.90
10149;DHT22;5115;50.920;6.376;2023-12-20T06:41:04;7.60;99.90
10149;DHT22;5115;50.920;6.376;2023-12-20T06:43:29;8.20;99.90
10149;DHT22;5115;50.920;6.376;2023-12-20T06:45:56;7.60;99.90
10149;DHT22;5115;50.920;6.376;2023-12-20T06:48:22;7.60;99.90
10149;DHT22;5115;50.920;6.376;2023-12-20T06:50:47;7.60;99.90
10149;DHT22;5115;50.920;6.376;2023-12-20T06:53:13;7.70;99.90
10149;DHT22;5115;50.920;6.376;2023-12-20T06:55:38;7.60;99.90
10149;DHT22;5115;50.920;6.376;2023-12-20T06:58:05;7.60;99.90
10149;DHT22;5115;50.920;6.376;2023-12-20T07:00:32;7.60;99.90
10149;DHT22;5115;50.920;6.376;2023-12-20T07:02:58;7.60;99.90
10149;DHT22;5115;50.920;6.376;2023-12-20T07:05:24;7.60;99.90
10149;DHT22;5115;50.920;6.376;2023-12-20T07:07:49;7.60;99.90
10149;DHT22;5115;50.920;6.376;2023-12-20T07:10:15;7.60;99.90
10149;DHT22;5115;50.920;6.376;2023-12-20T07:12:42;7.60;99.90
10149;DHT22;5115;50.920;6.376;2023-12-20T07:15:08;7.60;99.90
10149;DHT22;5115;50.920;6.376;2023-12-20T07:17:34;7.60;99.90
10149;DHT22;5115;50.920;6.376;2023-12-20T07:19:59;7.60;99.90
10149;DHT22;5115;50.920;6.376;2023-12-20T07:22:29;7.60;99.90
10149;DHT22;5115;50.920;6.376;2023-12-20T07:24:57;7.50;99.90
10149;DHT22;5115;50.920;6.376;2023-12-20T07:27:23;7.60;99.90
10149;DHT22;5115;50.920;6.376;2023-12-20T07:29:48;7.60;99.90
10149;DHT22;5115;50.920;6.376;2023-12-20T07:32:14;8.20;99.90
10149;DHT22;5115;50.920;6.376;2023-12-20T07:34:39;7.50;99.90
10149;DHT22;5115;50.920;6.376;2023-12-20T07:37:05;7.50;99.90
10149;DHT22;5115;50.920;6.376;2023-12-20T07:39:30;7.50;99.90
10149;DHT22;5115;50.920;6.376;2023-12-20T07:41:56;7.40;99.90
10149;DHT22;5115;50.920;6.376;2023-12-20T07:44:21;7.40;99.90
10149;DHT22;5115;50.920;6.376;2023-12-20T07:46:47;7.40;99.90
10149;DHT22;5115;50.920;6.376;2023-12-20T07:49:14;7.30;99.90
10149;DHT22;5115;50.920;6.376;2023-12-20T07:51:39;7.40;99.90
10149;DHT22;5115;50.920;6.376;2023-12-20T07:54:05;7.30;99.90
10149;DHT22;5115;50.920;6.376;2023-12-20T07:56:30;7.30;99.90
10149;DHT22;5115;50.920;6.376;2023-12-20T07:58:56;7.30;99.90
10149;DHT22;5115;50.920;6.376;2023-12-20T08:01:22;7.20;99.90
10149;DHT22;5115;50.920;6.376;2023-12-20T08:03:49;7.30;99.90
10149;DHT22;5115;50.920;6.376;2023-12-20T08:06:14;7.40;99.90
10149;DHT22;5115;50.920;6.376;2023-12-20T08:08:40;7.40;99.90
10149;DHT22;5115;50.920;6.376;2023-12-20T08:11:05;7.50;99.90
10149;DHT22;5115;50.920;6.376;2023-12-20T08:13:31;7.60;99.90
10149;DHT22;5115;50.920;6.376;2023-12-20T08:15:56;7.70;99.90
10149;DHT22;5115;50.920;6.376;2023-12-20T08:18:22;7.80;99.90
10149;DHT22;5115;50.920;6.376;2023-12-20T08:20:48;8.00;99.90
10149;DHT22;5115;50.920;6.376;2023-12-20T08:23:14;8.00;99.90
10149;DHT22;5115;50.920;6.376;2023-12-20T08:25:40;8.10;99.90
10149;DHT22;5115;50.920;6.376;2023-12-20T08:28:06;8.40;99.90
10149;DHT22;5115;50.920;6.376;2023-12-20T08:30:31;8.50;99.90
10149;DHT22;5115;50.920;6.376;2023-12-20T08:33:00;8.40;99.90
10149;DHT22;5115;50.920;6.376;2023-12-20T08:35:25;8.10;99.90
10149;DHT22;5115;50.920;6.376;2023-12-20T08:37:51;8.10;99.90
10149;DHT22;5115;50.920;6.376;2023-12-20T08:40:17;8.30;99.90
10149;DHT22;5115;50.920;6.376;2023-12-20T08:42:42;8.40;99.90
10149;DHT22;5115;50.920;6.376;2023-12-20T08:45:08;8.40;99.90
10149;DHT22;5115;50.920;6.376;2023-12-20T08:47:34;8.30;99.90
10149;DHT22;5115;50.920;6.376;2023-12-20T08:49:59;8.20;99.90
10149;DHT22;5115;50.920;6.376;2023-12-20T08:52:27;8.10;99.90
10149;DHT22;5115;50.920;6.376;2023-12-20T08:54:53;8.10;99.90
10149;DHT22;5115;50.920;6.376;2023-12-20T08:57:21;8.20;99.90
10149;DHT22;5115;50.920;6.376;2023-12-20T08:59:49;8.10;99.90
10149;DHT22;5115;50.920;6.376;2023-12-20T09:02:15;8.00;99.90
10149;DHT22;5115;50.920;6.376;2023-12-20T09:04:41;8.00;99.90
10149;DHT22;5115;50.920;6.376;2023-12-20T09:07:06;8.00;99.90
10149;DHT22;5115;50.920;6.376;2023-12-20T09:09:32;8.10;99.90
10149;DHT22;5115;50.920;6.376;2023-12-20T09:11:58;8.00;99.90
10149;DHT22;5115;50.920;6.376;2023-12-20T09:14:24;8.00;99.90
10149;DHT22;5115;50.920;6.376;2023-12-20T09:16:49;8.00;99.90
10149;DHT22;5115;50.920;6.376;2023-12-20T09:19:17;8.10;99.90
10149;DHT22;5115;50.920;6.376;2023-12-20T09:21:43;8.10;99.90
10149;DHT22;5115;50.920;6.376;2023-12-20T09:24:08;8.40;99.90
10149;DHT22;5115;50.920;6.376;2023-12-20T09:26:34;9.00;99.90
10149;DHT22;5115;50.920;6.376;2023-12-20T09:29:00;9.60;99.90
10149;DHT22;5115;50.920;6.376;2023-12-20T09:31:25;9.90;99.90
10149;DHT22;5115;50.920;6.376;2023-12-20T09:33:52;10.60;99.90
10149;DHT22;5115;50.920;6.376;2023-12-20T09:36:18;11.30;99.90
10149;DHT22;5115;50.920;6.376;2023-12-20T09:38:43;11.30;99.90
10149;DHT22;5115;50.920;6.376;2023-12-20T09:41:09;10.90;99.90
10149;DHT22;5115;50.920;6.376;2023-12-20T09:43:38;10.60;99.90
10149;DHT22;5115;50.920;6.376;2023-12-20T09:46:06;11.20;99.90
10149;DHT22;5115;50.920;6.376;2023-12-20T09:48:32;12.10;99.90
10149;DHT22;5115;50.920;6.376;2023-12-20T09:50:59;12.60;99.90
10149;DHT22;5115;50.920;6.376;2023-12-20T09:53:25;12.80;99.90
10149;DHT22;5115;50.920;6.376;2023-12-20T09:55:58;13.30;99.90
10149;DHT22;5115;50.920;6.376;2023-12-20T09:58:27;14.10;99.90
10149;DHT22;5115;50.920;6.376;2023-12-20T10:00:53;14.20;99.90
10149;DHT22;5115;50.920;6.376;2023-12-20T10:03:24;13.60;99.90
10149;DHT22;5115;50.920;6.376;2023-12-20T10:05:54;12.60;99.90
10149;DHT22;5115;50.920;6.376;2023-12-20T10:08:21;12.40;99.90
10149;DHT22;5115;50.920;6.376;2023-12-20T10:10:47;12.50;99.90
10149;DHT22;5115;50.920;6.376;2023-12-20T10:13:13;12.60;99.90
10149;DHT22;5115;50.920;6.376;2023-12-20T10:15:38;13.00;99.90
10149;DHT22;5115;50.920;6.376;2023-12-20T10:18:05;12.40;99.90
10149;DHT22;5115;50.920;6.376;2023-12-20T10:20:31;12.20;99.90
10149;DHT22;5115;50.920;6.376;2023-12-20T10:22:57;11.70;99.90
10149;DHT22;5115;50.920;6.376;2023-12-20T10:25:24;11.20;99.90
10149;DHT22;5115;50.920;6.376;2023-12-20T10:27:50;10.70;99.90
10149;DHT22;5115;50.920;6.376;2023-12-20T10:30:33;10.30;99.90
10149;DHT22;5115;50.920;6.376;2023-12-20T10:32:59;9.90;99.90
10149;DHT22;5115;50.920;6.376;2023-12-20T10:35:24;10.00;99.90
10149;DHT22;5115;50.920;6.376;2023-12-20T10:37:52;10.20;99.90
10149;DHT22;5115;50.920;6.376;2023-12-20T10:40:20;10.30;99.90
10149;DHT22;5115;50.920;6.376;2023-12-20T10:42:47;10.60;99.90
10149;DHT22;5115;50.920;6.376;2023-12-20T10:45:12;10.70;99.90
10149;DHT22;5115;50.920;6.376;2023-12-20T10:47:39;10.70;99.90
10149;DHT22;5115;50.920;6.376;2023-12-20T10:50:06;10.50;99.90
10149;DHT22;5115;50.920;6.376;2023-12-20T10:52:34;10.20;99.90
10149;DHT22;5115;50.920;6.376;2023-12-20T10:55:01;9.80;99.90
10149;DHT22;5115;50.920;6.376;2023-12-20T10:57:27;9.60;99.90
10149;DHT22;5115;50.920;6.376;2023-12-20T10:59:54;9.40;99.90
10149;DHT22;5115;50.920;6.376;2023-12-20T11:02:20;9.20;99.90
10149;DHT22;5115;50.920;6.376;2023-12-20T11:10:38;8.90;99.90
10149;DHT22;5115;50.920;6.376;2023-12-20T11:13:47;8.70;99.90
10149;DHT22;5115;50.920;6.376;2023-12-20T11:16:14;8.60;99.90
10149;DHT22;5115;50.920;6.376;2023-12-20T11:18:41;8.60;99.90
10149;DHT22;5115;50.920;6.376;2023-12-20T11:21:06;8.50;99.90
10149;DHT22;5115;50.920;6.376;2023-12-20T11:23:32;8.50;99.90
10149;DHT22;5115;50.920;6.376;2023-12-20T11:26:00;8.40;99.90
10149;DHT22;5115;50.920;6.376;2023-12-20T11:28:27;8.40;99.90
10149;DHT22;5115;50.920;6.376;2023-12-20T11:30:57;8.50;99.90
10149;DHT22;5115;50.920;6.376;2023-12-20T11:33:45;8.50;99.90
10149;DHT22;5115;50.920;6.376;2023-12-20T11:36:14;8.50;99.90
10149;DHT22;5115;50.920;6.376;2023-12-20T11:38:56;8.60;99.90
10149;DHT22;5115;50.920;6.376;2023-12-20T11:41:23;8.60;99.90
10149;DHT22;5115;50.920;6.376;2023-12-20T11:43:55;8.60;99.90
10149;DHT22;5115;50.920;6.376;2023-12-20T11:46:22;8.70;99.90
10149;DHT22;5115;50.920;6.376;2023-12-20T11:48:48;8.70;99.90
10149;DHT22;5115;50.920;6.376;2023-12-20T11:51:14;8.70;99.90
10149;DHT22;5115;50.920;6.376;2023-12-20T11:53:40;8.70;99.90
10149;DHT22;5115;50.920;6.376;2023-12-20T11:56:10;8.70;99.90
10149;DHT22;5115;50.920;6.376;2023-12-20T11:58:37;8.70;99.90
10149;DHT22;5115;50.920;6.376;2023-12-20T12:01:03;8.70;99.90
10149;DHT22;5115;50.920;6.376;2023-12-20T12:03:33;8.70;99.90
10149;DHT22;5115;50.920;6.376;2023-12-20T12:06:02;8.80;99.90
10149;DHT22;5115;50.920;6.376;2023-12-20T12:08:29;8.80;99.90
10149;DHT22;5115;50.920;6.376;2023-12-20T12:10:55;8.80;99.90
10149;DHT22;5115;50.920;6.376;2023-12-20T12:13:21;8.70;99.90
10149;DHT22;5115;50.920;6.376;2023-12-20T12:15:53;8.80;99.90
10149;DHT22;5115;50.920;6.376;2023-12-20T12:18:19;8.90;99.90
10149;DHT22;5115;50.920;6.376;2023-12-20T12:20:44;8.80;99.90
10149;DHT22;5115;50.920;6.376;2023-12-20T12:23:11;8.70;99.90
10149;DHT22;5115;50.920;6.376;2023-12-20T12:25:36;8.70;99.90
10149;DHT22;5115;50.920;6.376;2023-12-20T12:28:05;8.70;99.90
10149;DHT22;5115;50.920;6.376;2023-12-20T12:30:30;8.70;99.90
10149;DHT22;5115;50.920;6.376;2023-12-20T12:32:57;8.70;99.90
10149;DHT22;5115;50.920;6.376;2023-12-20T12:35:23;8.70;99.90
10149;DHT22;5115;50.920;6.376;2023-12-20T12:37:49;8.80;99.90
10149;DHT22;5115;50.920;6.376;2023-12-20T12:40:16;8.80;99.90
10149;DHT22;5115;50.920;6.376;2023-12-20T12:42:43;8.70;99.90
10149;DHT22;5115;50.920;6.376;2023-12-20T12:45:10;8.80;99.90
10149;DHT22;5115;50.920;6.376;2023-12-20T12:47:39;8.70;99.90
10149;DHT22;5115;50.920;6.376;2023-12-20T12:50:04;8.70;99.90
10149;DHT22;5115;50.920;6.376;2023-12-20T12:52:30;8.70;99.90
10149;DHT22;5115;50.920;6.376;2023-12-20T12:54:56;8.60;99.90
10149;DHT22;5115;50.920;6.376;2023-12-20T12:57:22;8.70;99.90
10149;DHT22;5115;50.920;6.376;2023-12-20T12:59:47;8.60;99.90
10149;DHT22;5115;50.920;6.376;2023-12-20T13:02:14;8.70;99.90
10149;DHT22;5115;50.920;6.376;2023-12-20T13:04:40;8.70;99.90
10149;DHT22;5115;50.920;6.376;2023-12-20T13:07:07;8.80;99.90
10149;DHT22;5115;50.920;6.376;2023-12-20T13:09:33;8.80;99.90
10149;DHT22;5115;50.920;6.376;2023-12-20T13:11:59;8.80;99.90
10149;DHT22;5115;50.920;6.376;2023-12-20T13:14:25;8.70;99.90
10149;DHT22;5115;50.920;6.376;2023-12-20T13:16:52;8.80;99.90
10149;DHT22;5115;50.920;6.376;2023-12-20T13:19:17;8.80;99.90
10149;DHT22;5115;50.920;6.376;2023-12-20T13:21:43;8.80;99.90
10149;DHT22;5115;50.920;6.376;2023-12-20T13:24:08;8.80;99.90
10149;DHT22;5115;50.920;6.376;2023-12-20T13:26:34;8.90;99.90
10149;DHT22;5115;50.920;6.376;2023-12-20T13:28:59;9.00;99.90
10149;DHT22;5115;50.920;6.376;2023-12-20T13:31:25;9.00;99.90
10149;DHT22;5115;50.920;6.376;2023-12-20T13:33:50;9.00;99.90
10149;DHT22;5115;50.920;6.376;2023-12-20T13:36:17;9.00;99.90
10149;DHT22;5115;50.920;6.376;2023-12-20T13:38:43;9.00;99.90
10149;DHT22;5115;50.920;6.376;2023-12-20T13:41:09;9.00;99.90
10149;DHT22;5115;50.920;6.376;2023-12-20T13:43:34;9.00;99.90
10149;DHT22;5115;50.920;6.376;2023-12-20T13:46:00;9.00;99.90
10149;DHT22;5115;50.920;6.376;2023-12-20T13:48:26;9.00;99.90
10149;DHT22;5115;50.920;6.376;2023-12-20T13:50:51;8.90;99.90
10149;DHT22;5115;50.920;6.376;2023-12-20T13:53:17;9.00;99.90
10149;DHT22;5115;50.920;6.376;2023-12-20T13:55:42;9.00;99.90
10149;DHT22;5115;50.920;6.376;2023-12-20T13:58:08;8.90;99.90
10149;DHT22;5115;50.920;6.376;2023-12-20T14:00:35;8.90;99.90
10149;DHT22;5115;50.920;6.376;2023-12-20T14:03:02;8.90;99.90
10149;DHT22;5115;50.920;6.376;2023-12-20T14:05:28;8.90;99.90
10149;DHT22;5115;50.920;6.376;2023-12-20T14:07:54;8.90;99.90
10149;DHT22;5115;50.920;6.376;2023-12-20T14:10:19;8.90;99.90
10149;DHT22;5115;50.920;6.376;2023-12-20T14:12:45;9.00;99.90
10149;DHT22;5115;50.920;6.376;2023-12-20T14:15:11;9.00;99.90
10149;DHT22;5115;50.920;6.376;2023-12-20T14:17:39;9.00;99.90
10149;DHT22;5115;50.920;6.376;2023-12-20T14:20:08;9.00;99.90
10149;DHT22;5115;50.920;6.376;2023-12-20T14:22:34;9.00;99.90
10149;DHT22;5115;50.920;6.376;2023-12-20T14:25:00;9.10;99.90
10149;DHT22;5115;50.920;6.376;2023-12-20T14:27:26;9.10;99.90
10149;DHT22;5115;50.920;6.376;2023-12-20T14:29:54;9.10;99.90
10149;DHT22;5115;50.920;6.376;2023-12-20T14:32:19;9.10;99.90
10149;DHT22;5115;50.920;6.376;2023-12-20T14:34:46;9.10;99.90
10149;DHT22;5115;50.920;6.376;2023-12-20T14:37:12;9.10;99.90
10149;DHT22;5115;50.920;6.376;2023-12-20T14:39:37;9.10;99.90
10149;DHT22;5115;50.920;6.376;2023-12-20T14:42:07;9.10;99.90
10149;DHT22;5115;50.920;6.376;2023-12-20T14:44:35;9.10;99.90
10149;DHT22;5115;50.920;6.376;2023-12-20T14:47:00;9.10;99.90
10149;DHT22;5115;50.920;6.376;2023-12-20T14:49:27;9.00;99.90
10149;DHT22;5115;50.920;6.376;2023-12-20T14:51:53;9.10;99.90
10149;DHT22;5115;50.920;6.376;2023-12-20T14:54:19;9.00;99.90
10149;DHT22;5115;50.920;6.376;2023-12-20T14:56:46;9.10;99.90
10149;DHT22;5115;50.920;6.376;2023-12-20T14:59:12;9.10;99.90
10149;DHT22;5115;50.920;6.376;2023-12-20T15:01:39;9.00;99.90
10149;DHT22;5115;50.920;6.376;2023-12-20T15:04:06;9.00;99.90
10149;DHT22;5115;50.920;6.376;2023-12-20T15:06:32;9.00;99.90
10149;DHT22;5115;50.920;6.376;2023-12-20T15:08:58;8.90;99.90
10149;DHT22;5115;50.920;6.376;2023-12-20T15:11:24;8.90;99.90
10149;DHT22;5115;50.920;6.376;2023-12-20T15:13:49;9.00;99.90
10149;DHT22;5115;50.920;6.376;2023-12-20T15:16:20;9.90;99.90
10149;DHT22;5115;50.920;6.376;2023-12-20T15:18:46;9.00;99.90
10149;DHT22;5115;50.920;6.376;2023-12-20T15:21:11;9.00;99.90
10149;DHT22;5115;50.920;6.376;2023-12-20T15:23:37;9.00;99.90
10149;DHT22;5115;50.920;6.376;2023-12-20T15:26:03;8.90;99.90
10149;DHT22;5115;50.920;6.376;2023-12-20T15:28:30;8.80;99.90
10149;DHT22;5115;50.920;6.376;2023-12-20T15:30:55;9.80;99.90
10149;DHT22;5115;50.920;6.376;2023-12-20T15:33:22;8.80;99.90
10149;DHT22;5115;50.920;6.376;2023-12-20T15:35:47;8.80;99.90
10149;DHT22;5115;50.920;6.376;2023-12-20T15:38:13;8.80;99.90
10149;DHT22;5115;50.920;6.376;2023-12-20T15:40:39;8.90;99.90
10149;DHT22;5115;50.920;6.376;2023-12-20T15:43:04;8.80;99.90
10149;DHT22;5115;50.920;6.376;2023-12-20T15:45:30;8.80;99.90
10149;DHT22;5115;50.920;6.376;2023-12-20T15:47:56;8.80;99.90
10149;DHT22;5115;50.920;6.376;2023-12-20T15:50:21;8.80;99.90
10149;DHT22;5115;50.920;6.376;2023-12-20T15:52:47;8.80;99.90
10149;DHT22;5115;50.920;6.376;2023-12-20T15:55:13;8.80;99.90
10149;DHT22;5115;50.920;6.376;2023-12-20T15:57:39;8.80;99.90